Time;durP1;ratioP1;P1;durP2;ratioP2;P2;SDS_P1;SDS_P2;PMS_P1;PMS_P2;Temp;Humidity;BMP_temperature;BMP_pressure;BME280_temperature;BME280_humidity;BME280_pressure;Samples;Min_cycle;Max_cycle;Signal;HPM_P1;HPM_P2
2023/12/02 00:00:45;;;;;;;26.53;17.30;;;-0.50;99.90;;;;;;5021569;28;20757;-80
2023/12/02 00:03:12;;;;;;;29.93;17.13;;;-0.60;99.90;;;;;;5041618;28;20741;-80
2023/12/02 00:05:39;;;;;;;47.63;18.47;;;-0.60;99.90;;;;;;5023714;28;20271;-80
2023/12/02 00:08:06;;;;;;;26.33;17.63;;;-0.50;99.90;;;;;;5018877;28;20246;-80
2023/12/02 00:10:34;;;;;;;24.97;16.60;;;-0.60;99.90;;;;;;5022734;28;20243;-81
2023/12/02 00:13:01;;;;;;;25.00;16.20;;;-0.50;99.90;;;;;;5039013;28;20435;-80
2023/12/02 00:15:28;;;;;;;40.23;17.97;;;-0.50;99.90;;;;;;5029604;28;20219;-80
2023/12/02 00:17:56;;;;;;;23.80;15.63;;;-0.50;99.90;;;;;;5043523;28;20231;-81
2023/12/02 00:20:24;;;;;;;33.33;16.53;;;-0.50;99.90;;;;;;5021231;28;20650;-81
2023/12/02 00:22:51;;;;;;;28.83;16.13;;;-0.50;99.90;;;;;;5043950;28;20570;-81
2023/12/02 00:25:18;;;;;;;47.10;17.33;;;-0.50;99.90;;;;;;5000156;28;20310;-81
2023/12/02 00:27:45;;;;;;;21.37;15.20;;;-0.50;99.90;;;;;;5035065;28;20585;-82
2023/12/02 00:30:12;;;;;;;45.37;17.50;;;-0.60;99.90;;;;;;5028123;28;20307;-82
2023/12/02 00:32:39;;;;;;;26.47;16.13;;;-0.60;99.90;;;;;;5046750;28;20697;-82
2023/12/02 00:35:09;;;;;;;27.27;16.27;;;-0.60;99.90;;;;;;5046536;28;20220;-82
2023/12/02 00:37:36;;;;;;;65.60;16.93;;;-0.60;99.90;;;;;;5045456;28;20223;-81
2023/12/02 00:40:05;;;;;;;389.03;34.77;;;-0.60;99.90;;;;;;5024842;28;20234;-81
2023/12/02 00:42:32;;;;;;;24.93;14.97;;;-0.60;99.90;;;;;;5044432;28;20521;-81
2023/12/02 00:44:59;;;;;;;22.70;15.57;;;-0.60;99.90;;;;;;5050561;28;20833;-81
2023/12/02 00:47:25;;;;;;;41.00;16.87;;;-0.60;99.90;;;;;;5030570;28;20310;-81
2023/12/02 00:49:52;;;;;;;22.87;15.77;;;-0.60;99.90;;;;;;5028999;28;20229;-81
2023/12/02 00:52:20;;;;;;;20.50;15.23;;;-0.60;99.90;;;;;;5036486;28;20710;-81
2023/12/02 00:54:47;;;;;;;23.87;15.13;;;-0.60;99.90;;;;;;5028453;28;20335;-81
2023/12/02 00:57:13;;;;;;;24.40;15.33;;;-0.60;99.90;;;;;;5028247;28;20302;-81
2023/12/02 00:59:40;;;;;;;25.27;15.30;;;-0.60;99.90;;;;;;5022368;28;20750;-80
2023/12/02 01:02:07;;;;;;;23.37;15.50;;;-0.60;99.90;;;;;;5038887;28;20256;-80
2023/12/02 01:04:34;;;;;;;19.10;13.77;;;-0.60;99.90;;;;;;5042424;28;20475;-80
2023/12/02 01:07:01;;;;;;;24.27;15.70;;;-0.60;99.90;;;;;;5038576;28;20237;-81
2023/12/02 01:09:29;;;;;;;22.00;14.70;;;-0.60;99.90;;;;;;5040284;28;20241;-81
2023/12/02 01:11:58;;;;;;;20.43;14.40;;;-0.70;99.90;;;;;;5026400;28;20297;-81
2023/12/02 01:14:25;;;;;;;24.47;14.33;;;-0.70;99.90;;;;;;5040576;28;20739;-80
2023/12/02 01:16:53;;;;;;;20.17;14.93;;;-0.60;99.90;;;;;;5042980;28;20229;-80
2023/12/02 01:19:21;;;;;;;58.00;15.20;;;-0.60;99.90;;;;;;5044538;28;20734;-81
2023/12/02 01:21:48;;;;;;;23.30;14.03;;;-0.60;99.90;;;;;;5015913;28;20224;-81
2023/12/02 01:24:16;;;;;;;34.03;15.10;;;-0.60;99.90;;;;;;5027905;28;20230;-81
2023/12/02 01:26:45;;;;;;;20.23;13.33;;;-0.60;99.90;;;;;;5041862;28;20243;-81
2023/12/02 01:29:12;;;;;;;28.97;13.97;;;-0.60;99.90;;;;;;5045335;28;20231;-81
2023/12/02 01:31:39;;;;;;;19.10;13.73;;;-0.60;99.90;;;;;;5015705;28;20566;-81
2023/12/02 01:34:06;;;;;;;29.70;14.37;;;-0.60;99.90;;;;;;5036043;28;20263;-81
2023/12/02 01:36:33;;;;;;;18.73;14.03;;;-0.60;99.90;;;;;;5040182;28;20235;-81
2023/12/02 01:38:59;;;;;;;62.73;15.03;;;-0.60;99.90;;;;;;5046455;28;20303;-82
2023/12/02 01:41:26;;;;;;;42.57;15.80;;;-0.60;99.90;;;;;;5043008;28;20243;-81
2023/12/02 01:43:55;;;;;;;39.63;13.80;;;-0.60;99.90;;;;;;5020761;28;20303;-82
2023/12/02 01:46:21;;;;;;;161.47;21.60;;;-0.60;99.90;;;;;;5030156;28;20257;-82
2023/12/02 01:48:49;;;;;;;53.47;15.70;;;-0.60;99.90;;;;;;5045325;28;20231;-81
2023/12/02 01:51:17;;;;;;;24.43;13.63;;;-0.60;99.90;;;;;;5051195;28;20225;-82
2023/12/02 01:53:44;;;;;;;18.87;13.43;;;-0.60;99.90;;;;;;5050672;28;20223;-82
2023/12/02 01:56:12;;;;;;;19.40;13.30;;;-0.60;99.90;;;;;;5035177;28;20320;-82
2023/12/02 01:58:39;;;;;;;21.67;13.53;;;-0.60;99.90;;;;;;5024136;28;20286;-82
2023/12/02 02:01:08;;;;;;;20.70;13.47;;;-0.60;99.90;;;;;;5030677;28;20324;-81
2023/12/02 02:03:35;;;;;;;17.90;13.23;;;-0.60;99.90;;;;;;5025371;28;20244;-80
2023/12/02 02:06:02;;;;;;;20.17;13.30;;;-0.60;99.90;;;;;;5042150;28;20222;-80
2023/12/02 02:08:29;;;;;;;18.57;12.43;;;-0.60;99.90;;;;;;5047199;28;21072;-81
2023/12/02 02:10:57;;;;;;;18.70;13.27;;;-0.50;99.90;;;;;;5043976;28;20524;-80
2023/12/02 02:13:25;;;;;;;30.73;13.43;;;-0.60;99.90;;;;;;5027608;28;20241;-80
2023/12/02 02:15:52;;;;;;;21.40;13.43;;;-0.60;99.90;;;;;;5045180;28;20244;-81
2023/12/02 02:18:21;;;;;;;22.80;13.47;;;-0.50;99.90;;;;;;5047156;28;20292;-81
2023/12/02 02:20:51;;;;;;;16.70;12.20;;;-0.60;99.90;;;;;;5046746;28;20227;-81
2023/12/02 02:23:20;;;;;;;19.30;12.93;;;-0.60;99.90;;;;;;5048796;28;20224;-80
2023/12/02 02:25:49;;;;;;;21.77;13.27;;;-0.60;99.90;;;;;;5048202;28;20225;-82
2023/12/02 02:28:20;;;;;;;20.47;14.10;;;-0.60;99.90;;;;;;5030085;28;20755;-81
2023/12/02 02:30:47;;;;;;;19.73;12.77;;;-0.60;99.90;;;;;;5029330;28;20226;-81
2023/12/02 02:33:14;;;;;;;20.97;13.00;;;-0.60;99.90;;;;;;5033563;28;20729;-81
2023/12/02 02:35:41;;;;;;;18.63;13.63;;;-0.60;99.90;;;;;;5047499;28;20446;-81
2023/12/02 02:38:08;;;;;;;59.57;15.37;;;-0.60;99.90;;;;;;5039860;28;20220;-81
2023/12/02 02:40:37;;;;;;;17.23;13.30;;;-0.60;99.90;;;;;;5012911;28;20229;-82
2023/12/02 02:43:04;;;;;;;169.70;20.80;;;-0.60;99.90;;;;;;5042974;28;20294;-81
2023/12/02 02:45:31;;;;;;;23.33;13.07;;;-0.60;99.90;;;;;;5043582;28;20866;-81
2023/12/02 02:47:59;;;;;;;20.57;13.27;;;-0.60;99.90;;;;;;5045320;28;20220;-81
2023/12/02 02:50:26;;;;;;;20.80;13.97;;;-0.60;99.90;;;;;;5042387;28;20735;-81
2023/12/02 02:52:53;;;;;;;22.37;14.17;;;-0.60;99.90;;;;;;5027911;28;20328;-81
2023/12/02 02:55:20;;;;;;;22.07;14.23;;;-0.60;99.90;;;;;;5023402;28;20241;-82
2023/12/02 02:57:48;;;;;;;21.83;13.60;;;-0.60;99.90;;;;;;5029259;28;20316;-81
2023/12/02 03:00:16;;;;;;;21.50;14.13;;;-0.50;99.90;;;;;;5026463;28;20323;-81
2023/12/02 03:02:43;;;;;;;20.53;13.23;;;-0.50;99.90;;;;;;5042910;28;20766;-80
2023/12/02 03:05:10;;;;;;;21.30;13.53;;;-0.60;99.90;;;;;;5043713;28;20357;-81
2023/12/02 03:07:37;;;;;;;21.17;13.90;;;-0.60;99.90;;;;;;5022908;28;20676;-80
2023/12/02 03:10:04;;;;;;;20.80;14.43;;;-0.60;99.90;;;;;;5030589;28;20254;-81
2023/12/02 03:12:31;;;;;;;26.80;14.03;;;-0.60;99.90;;;;;;5028119;28;20216;-80
2023/12/02 03:14:59;;;;;;;20.03;13.43;;;-0.60;99.90;;;;;;5042967;28;20274;-81
2023/12/02 03:17:26;;;;;;;19.73;13.73;;;-0.60;99.90;;;;;;5046721;28;20309;-81
2023/12/02 03:19:53;;;;;;;22.83;13.50;;;-0.60;99.90;;;;;;5029354;28;20606;-81
2023/12/02 03:22:20;;;;;;;28.53;14.93;;;-0.60;99.90;;;;;;5024272;28;20270;-81
2023/12/02 03:24:47;;;;;;;21.93;13.80;;;-0.60;99.90;;;;;;5047141;28;20276;-81
2023/12/02 03:27:13;;;;;;;21.50;14.80;;;-0.60;99.90;;;;;;5045027;28;20527;-81
2023/12/02 03:29:40;;;;;;;19.67;13.63;;;-0.70;99.90;;;;;;5025113;28;20235;-81
2023/12/02 03:32:08;;;;;;;26.53;14.57;;;-0.60;99.90;;;;;;5047674;28;20294;-81
2023/12/02 03:34:35;;;;;;;22.70;13.77;;;-0.70;99.90;;;;;;5042642;28;20486;-81
2023/12/02 03:37:04;;;;;;;22.17;14.40;;;-0.70;99.90;;;;;;5025333;28;20431;-81
2023/12/02 03:39:31;;;;;;;21.23;14.10;;;-0.70;99.90;;;;;;5046131;28;20276;-81
2023/12/02 03:41:58;;;;;;;23.57;13.90;;;-0.60;99.90;;;;;;5031781;28;20297;-81
2023/12/02 03:44:25;;;;;;;39.77;15.10;;;-0.70;99.90;;;;;;5032116;28;20807;-81
2023/12/02 03:46:52;;;;;;;42.33;14.33;;;-0.60;99.90;;;;;;5034662;28;20266;-81
2023/12/02 03:49:20;;;;;;;23.33;14.43;;;-0.60;99.90;;;;;;5022002;28;20239;-81
2023/12/02 03:51:47;;;;;;;26.23;14.30;;;-0.60;99.90;;;;;;5044752;28;20347;-81
2023/12/02 03:54:14;;;;;;;23.63;13.63;;;-0.60;99.90;;;;;;5038881;28;20224;-81
2023/12/02 03:56:41;;;;;;;29.97;15.03;;;-0.60;99.90;;;;;;5028882;28;20263;-81
2023/12/02 03:59:09;;;;;;;21.43;15.00;;;-0.60;99.90;;;;;;5047582;28;20243;-81
2023/12/02 04:01:36;;;;;;;22.30;14.87;;;-0.60;99.90;;;;;;5043512;28;20231;-81
2023/12/02 04:04:03;;;;;;;24.23;14.77;;;-0.60;99.90;;;;;;5044768;28;20220;-82
2023/12/02 04:06:31;;;;;;;53.80;15.50;;;-0.60;99.90;;;;;;5042573;28;20235;-81
2023/12/02 04:08:59;;;;;;;21.23;13.60;;;-0.60;99.90;;;;;;5024553;28;21839;-81
2023/12/02 04:11:26;;;;;;;23.67;14.93;;;-0.60;99.90;;;;;;5025314;28;20225;-81
2023/12/02 04:13:52;;;;;;;22.97;14.77;;;-0.60;99.90;;;;;;5031753;28;20651;-81
2023/12/02 04:16:19;;;;;;;22.97;14.70;;;-0.60;99.90;;;;;;5027562;28;20233;-82
2023/12/02 04:18:47;;;;;;;25.37;15.40;;;-0.60;99.90;;;;;;5049508;28;20241;-82
2023/12/02 04:21:14;;;;;;;22.03;14.73;;;-0.60;99.90;;;;;;5026250;28;20227;-81
2023/12/02 04:23:43;;;;;;;26.87;16.07;;;-0.60;99.90;;;;;;5048973;28;20293;-82
2023/12/02 04:26:10;;;;;;;35.13;19.77;;;-0.60;99.90;;;;;;5024073;28;20225;-82
2023/12/02 04:28:37;;;;;;;38.50;16.57;;;-0.60;99.90;;;;;;5031417;28;20541;-82
2023/12/02 04:31:04;;;;;;;48.67;15.80;;;-0.60;99.90;;;;;;5048756;28;21267;-82
2023/12/02 04:33:30;;;;;;;32.07;18.80;;;-0.60;99.90;;;;;;5023846;28;20254;-81
2023/12/02 04:35:57;;;;;;;24.67;15.33;;;-0.60;99.90;;;;;;5047870;28;20812;-82
2023/12/02 04:38:24;;;;;;;24.17;15.63;;;-0.60;99.90;;;;;;5045357;28;20220;-81
2023/12/02 04:40:52;;;;;;;27.50;16.43;;;-0.60;99.90;;;;;;5032661;28;20232;-82
2023/12/02 04:43:19;;;;;;;30.43;17.33;;;-0.60;99.90;;;;;;5027232;28;20255;-82
2023/12/02 04:45:45;;;;;;;31.10;17.83;;;-0.60;99.90;;;;;;5029585;28;20213;-82
2023/12/02 04:48:12;;;;;;;25.47;15.43;;;-0.60;99.90;;;;;;5040270;28;20317;-82
2023/12/02 04:50:39;;;;;;;23.87;15.60;;;-0.60;99.90;;;;;;5034147;28;20431;-82
2023/12/02 04:53:06;;;;;;;28.60;15.40;;;-0.60;99.90;;;;;;5035980;28;20227;-82
2023/12/02 04:55:33;;;;;;;23.83;14.77;;;-0.50;99.90;;;;;;5029217;28;20750;-82
2023/12/02 04:58:01;;;;;;;26.50;15.90;;;-0.50;99.90;;;;;;5033668;28;20245;-82
2023/12/02 05:00:27;;;;;;;88.47;18.90;;;-0.50;99.90;;;;;;5046650;28;20281;-81
2023/12/02 05:02:55;;;;;;;27.13;16.03;;;-0.50;99.90;;;;;;5053201;28;20259;-82
2023/12/02 05:05:21;;;;;;;35.10;16.40;;;-0.50;99.90;;;;;;5044834;28;20311;-83
2023/12/02 05:07:48;;;;;;;27.10;15.53;;;-0.50;99.90;;;;;;5025466;28;20224;-82
2023/12/02 05:10:15;;;;;;;67.33;18.17;;;-0.50;99.90;;;;;;5026017;28;20711;-82
2023/12/02 05:12:42;;;;;;;39.00;17.43;;;-0.50;99.90;;;;;;5023691;28;20772;-81
2023/12/02 05:15:11;;;;;;;44.20;16.17;;;-0.50;99.90;;;;;;5026717;28;20251;-82
2023/12/02 05:17:38;;;;;;;31.23;17.53;;;-0.50;99.90;;;;;;5037871;28;20441;-82
2023/12/02 05:20:07;;;;;;;24.47;15.10;;;-0.50;99.90;;;;;;5041199;28;20223;-83
2023/12/02 05:22:34;;;;;;;25.73;15.80;;;-0.50;99.90;;;;;;5025174;28;20225;-82
2023/12/02 05:25:03;;;;;;;25.97;15.53;;;-0.50;99.90;;;;;;5034889;28;20227;-82
2023/12/02 05:27:30;;;;;;;28.03;16.60;;;-0.50;99.90;;;;;;5030530;28;20289;-82
2023/12/02 05:29:57;;;;;;;27.83;16.37;;;-0.50;99.90;;;;;;5010345;28;20254;-83
2023/12/02 05:32:26;;;;;;;31.73;17.77;;;-0.50;99.90;;;;;;5031003;28;20296;-85
2023/12/02 05:34:53;;;;;;;30.83;15.87;;;-0.50;99.90;;;;;;5032127;28;20234;-82
2023/12/02 05:37:20;;;;;;;29.83;15.87;;;-0.50;99.90;;;;;;5046745;28;20225;-82
2023/12/02 05:39:47;;;;;;;28.93;17.60;;;-0.50;99.90;;;;;;5028612;28;20217;-83
2023/12/02 05:42:14;;;;;;;108.80;19.13;;;-0.50;99.90;;;;;;5047763;28;20232;-84
2023/12/02 05:44:41;;;;;;;89.23;19.33;;;-0.50;99.90;;;;;;5023149;28;20678;-83
2023/12/02 05:47:08;;;;;;;26.97;16.93;;;-0.50;99.90;;;;;;5046190;28;20605;-85
2023/12/02 05:49:37;;;;;;;25.47;15.83;;;-0.50;99.90;;;;;;5031928;28;20660;-84
2023/12/02 05:52:04;;;;;;;27.57;16.10;;;-0.50;99.90;;;;;;5027177;28;20543;-84
2023/12/02 05:54:31;;;;;;;25.47;15.67;;;-0.50;99.90;;;;;;5027727;28;20231;-84
2023/12/02 05:56:57;;;;;;;24.93;15.73;;;-0.40;99.90;;;;;;5027744;28;20227;-83
2023/12/02 05:59:24;;;;;;;26.83;16.20;;;-0.50;99.90;;;;;;5047727;28;20244;-83
2023/12/02 06:01:52;;;;;;;49.20;16.67;;;-0.40;99.90;;;;;;5048898;28;20231;-84
2023/12/02 06:04:18;;;;;;;24.63;15.43;;;-0.40;99.90;;;;;;5050143;28;20775;-83
2023/12/02 06:06:47;;;;;;;26.27;16.23;;;-0.40;99.90;;;;;;5042152;28;20578;-83
2023/12/02 06:09:14;;;;;;;24.00;15.60;;;-0.40;99.90;;;;;;5048407;28;20518;-84
2023/12/02 06:11:41;;;;;;;24.30;15.47;;;-0.40;99.90;;;;;;5028016;28;20231;-83
2023/12/02 06:14:08;;;;;;;40.47;17.37;;;-0.40;99.90;;;;;;5044788;28;20225;-83
2023/12/02 06:16:35;;;;;;;27.33;16.10;;;-0.40;99.90;;;;;;5044322;28;20770;-82
2023/12/02 06:19:02;;;;;;;47.27;17.37;;;-0.40;99.90;;;;;;5031931;28;20224;-82
2023/12/02 06:21:29;;;;;;;26.33;16.60;;;-0.40;99.90;;;;;;5026129;28;20227;-82
2023/12/02 06:23:57;;;;;;;28.47;15.53;;;-0.40;99.90;;;;;;5029439;28;20283;-82
2023/12/02 06:26:24;;;;;;;25.60;15.70;;;-0.40;99.90;;;;;;5051038;28;20273;-82
2023/12/02 06:28:50;;;;;;;27.03;16.17;;;-0.40;99.90;;;;;;5029354;28;20720;-82
2023/12/02 06:31:18;;;;;;;26.17;15.87;;;-0.40;99.90;;;;;;5015587;28;20247;-82
2023/12/02 06:33:45;;;;;;;23.93;15.07;;;-0.40;99.90;;;;;;5047411;28;20225;-81
2023/12/02 06:36:12;;;;;;;25.17;15.97;;;-0.40;99.90;;;;;;5049729;28;20711;-82
2023/12/02 06:38:39;;;;;;;25.53;15.20;;;-0.40;99.90;;;;;;5030644;28;20221;-82
2023/12/02 06:41:08;;;;;;;25.77;16.10;;;-0.40;99.90;;;;;;5047404;28;20272;-82
2023/12/02 06:43:35;;;;;;;152.50;22.20;;;-0.40;99.90;;;;;;5044663;28;20273;-82
2023/12/02 06:46:02;;;;;;;28.50;16.50;;;-0.30;99.90;;;;;;5025662;28;20251;-81
2023/12/02 06:48:29;;;;;;;27.37;16.30;;;-0.40;99.90;;;;;;5024988;28;20636;-82
2023/12/02 06:50:55;;;;;;;26.83;15.80;;;-0.30;99.90;;;;;;5037668;28;20237;-82
2023/12/02 06:53:22;;;;;;;23.07;15.23;;;-0.30;99.90;;;;;;5025883;28;20657;-81
2023/12/02 06:55:49;;;;;;;26.53;16.20;;;-0.40;99.90;;;;;;5045476;28;20254;-83
2023/12/02 06:58:17;;;;;;;25.47;15.73;;;-0.40;99.90;;;;;;5024754;28;20555;-82
2023/12/02 07:00:44;;;;;;;26.50;16.00;;;-0.30;99.90;;;;;;5016079;28;20227;-82
2023/12/02 07:03:13;;;;;;;25.73;15.67;;;-0.40;99.90;;;;;;5007573;28;20228;-81
2023/12/02 07:05:40;;;;;;;27.33;15.40;;;-0.30;99.90;;;;;;5044945;28;20229;-81
2023/12/02 07:08:07;;;;;;;27.43;16.87;;;-0.30;99.90;;;;;;5026413;28;20226;-81
2023/12/02 07:10:33;;;;;;;25.77;15.97;;;-0.30;99.90;;;;;;5045754;28;20228;-82
2023/12/02 07:13:00;;;;;;;28.40;16.67;;;-0.30;99.90;;;;;;5030724;28;20572;-82
2023/12/02 07:15:28;;;;;;;27.93;16.67;;;-0.30;99.90;;;;;;5046062;28;20310;-82
2023/12/02 07:17:55;;;;;;;26.97;16.37;;;-0.30;99.90;;;;;;5028338;28;20290;-82
2023/12/02 07:20:21;;;;;;;32.73;16.87;;;-0.30;99.90;;;;;;5027181;28;20248;-82
2023/12/02 07:22:48;;;;;;;25.90;16.43;;;-0.30;99.90;;;;;;5046058;28;20330;-82
2023/12/02 07:25:15;;;;;;;30.50;16.67;;;-0.30;99.90;;;;;;5024268;28;20228;-82
2023/12/02 07:27:42;;;;;;;27.07;16.97;;;-0.30;99.90;;;;;;5030886;28;20503;-82
2023/12/02 07:30:09;;;;;;;25.33;16.37;;;-0.20;99.90;;;;;;5045777;28;20225;-82
2023/12/02 07:32:38;;;;;;;27.10;16.00;;;-0.20;99.90;;;;;;5044495;28;20246;-82
2023/12/02 07:35:06;;;;;;;26.17;16.00;;;-0.20;99.90;;;;;;5050366;28;20227;-81
2023/12/02 07:37:33;;;;;;;32.37;17.57;;;-0.20;99.90;;;;;;5026626;28;20263;-81
2023/12/02 07:40:00;;;;;;;123.53;21.83;;;-0.20;99.90;;;;;;5041315;28;20248;-80
2023/12/02 07:42:27;;;;;;;179.13;23.70;;;-0.10;99.90;;;;;;5043506;28;20225;-81
2023/12/02 07:44:53;;;;;;;27.57;17.07;;;-0.10;99.90;;;;;;5031367;28;20287;-81
2023/12/02 07:47:20;;;;;;;26.00;16.33;;;-0.20;99.90;;;;;;5044428;28;20688;-81
2023/12/02 07:49:48;;;;;;;28.27;15.63;;;-0.10;99.90;;;;;;5049317;28;20310;-80
2023/12/02 07:52:15;;;;;;;26.60;15.97;;;-0.10;99.90;;;;;;5033469;28;20232;-81
2023/12/02 07:54:42;;;;;;;25.60;16.03;;;-0.10;99.90;;;;;;5042454;28;20274;-82
2023/12/02 07:57:08;;;;;;;254.50;25.90;;;-0.10;99.90;;;;;;5043232;28;20231;-81
2023/12/02 07:59:35;;;;;;;25.87;16.43;;;-0.10;99.90;;;;;;5025847;28;20227;-82
2023/12/02 08:02:02;;;;;;;27.73;16.23;;;-0.10;99.90;;;;;;5022791;28;20231;-80
2023/12/02 08:04:29;;;;;;;26.43;16.70;;;-0.10;99.90;;;;;;5047623;28;20220;-81
2023/12/02 08:06:57;;;;;;;32.83;16.27;;;-0.10;99.90;;;;;;5024598;28;20228;-81
2023/12/02 08:09:24;;;;;;;111.63;20.03;;;-0.10;99.90;;;;;;5028524;28;20666;-82
2023/12/02 08:11:50;;;;;;;32.07;16.40;;;-0.10;99.90;;;;;;5031250;28;20219;-81
2023/12/02 08:14:17;;;;;;;22.80;15.17;;;-0.10;99.90;;;;;;5039260;28;20779;-81
2023/12/02 08:16:44;;;;;;;33.53;16.77;;;-0.10;99.90;;;;;;5011844;28;1032548;-82
2023/12/02 08:19:11;;;;;;;29.93;16.60;;;0.00;99.90;;;;;;5048738;28;20278;-81
2023/12/02 08:21:37;;;;;;;38.60;16.67;;;0.00;99.90;;;;;;5027453;28;20224;-82
2023/12/02 08:24:06;;;;;;;24.97;16.03;;;0.00;99.90;;;;;;5045110;28;20231;-83
2023/12/02 08:26:33;;;;;;;24.97;16.90;;;0.00;99.90;;;;;;5040791;28;20378;-83
2023/12/02 08:29:00;;;;;;;37.40;16.50;;;0.00;99.90;;;;;;5042047;28;20347;-82
2023/12/02 08:31:27;;;;;;;173.07;25.80;;;0.00;99.90;;;;;;5043211;28;20231;-83
2023/12/02 08:33:53;;;;;;;30.47;16.10;;;0.00;99.90;;;;;;5028490;28;20330;-83
2023/12/02 08:36:20;;;;;;;26.60;16.43;;;0.10;99.90;;;;;;5033936;28;20884;-83
2023/12/02 08:38:47;;;;;;;24.07;16.20;;;0.10;99.90;;;;;;5020857;28;20313;-83
2023/12/02 08:41:15;;;;;;;24.63;16.27;;;0.10;99.90;;;;;;5024778;28;20317;-83
2023/12/02 08:43:42;;;;;;;28.00;15.67;;;0.10;99.90;;;;;;5022783;28;20233;-83
2023/12/02 08:46:14;;;;;;;70.87;16.93;;;0.10;99.90;;;;;;5045045;28;20491;-83
2023/12/02 08:48:41;;;;;;;46.93;16.70;;;0.10;99.90;;;;;;5041805;28;20303;-83
2023/12/02 08:51:08;;;;;;;28.93;16.07;;;0.10;99.90;;;;;;5042273;28;20224;-83
2023/12/02 08:53:35;;;;;;;22.70;15.70;;;0.10;99.90;;;;;;5015564;28;20348;-83
2023/12/02 08:56:02;;;;;;;26.10;16.50;;;0.10;99.90;;;;;;5036825;28;20223;-83
2023/12/02 08:58:30;;;;;;;26.37;16.27;;;0.10;99.90;;;;;;5029683;28;20256;-83
2023/12/02 09:00:56;;;;;;;199.40;26.37;;;0.10;99.90;;;;;;5050349;28;20232;-83
2023/12/02 09:03:23;;;;;;;25.40;16.70;;;0.10;99.90;;;;;;5033796;28;20250;-83
2023/12/02 09:05:53;;;;;;;27.53;17.03;;;0.10;99.90;;;;;;5046845;28;20413;-83
2023/12/02 09:08:20;;;;;;;28.97;16.83;;;0.10;99.90;;;;;;5039985;28;20245;-83
2023/12/02 09:10:47;;;;;;;27.93;17.53;;;0.10;99.90;;;;;;5052063;28;20243;-83
2023/12/02 09:13:37;;;;;;;25.40;16.67;;;0.10;99.90;;;;;;5056442;28;20225;-83
2023/12/02 09:16:08;;;;;;;25.40;16.90;;;0.10;99.90;;;;;;5039649;28;20435;-85
2023/12/02 09:18:36;;;;;;;31.90;22.00;;;0.10;99.90;;;;;;5030766;28;20231;-86
2023/12/02 09:21:04;;;;;;;27.17;18.17;;;0.10;99.90;;;;;;5045171;28;20712;-86
2023/12/02 09:23:33;;;;;;;24.47;17.23;;;0.10;99.90;;;;;;5027833;28;20258;-86
2023/12/02 09:26:02;;;;;;;29.93;17.57;;;0.10;99.90;;;;;;5049574;28;20248;-86
2023/12/02 09:28:29;;;;;;;30.57;19.73;;;0.10;99.90;;;;;;5027394;28;20874;-85
2023/12/02 09:31:01;;;;;;;26.30;17.73;;;0.10;99.90;;;;;;5046849;28;20229;-85
2023/12/02 09:33:29;;;;;;;51.97;31.73;;;0.10;99.90;;;;;;5034562;28;20934;-85
2023/12/02 09:35:59;;;;;;;43.13;26.20;;;0.10;99.90;;;;;;5040728;28;20817;-85
2023/12/02 09:38:26;;;;;;;38.07;24.00;;;0.10;99.90;;;;;;5026582;28;20589;-85
2023/12/02 09:41:18;;;;;;;33.83;19.93;;;0.10;99.90;;;;;;5036142;28;20215;-85
2023/12/02 09:44:09;;;;;;;27.07;16.73;;;0.10;99.90;;;;;;5041668;28;20294;-85
2023/12/02 09:46:42;;;;;;;35.77;23.07;;;0.10;99.90;;;;;;5041251;28;20687;-85
2023/12/02 09:49:32;;;;;;;34.07;19.87;;;0.10;99.90;;;;;;5052376;28;20231;-86
2023/12/02 09:52:18;;;;;;;26.83;17.13;;;0.10;99.90;;;;;;5027519;28;20232;-85
2023/12/02 09:54:53;;;;;;;36.03;22.60;;;0.10;99.90;;;;;;5034964;28;20224;-83
2023/12/02 09:57:33;;;;;;;30.67;17.83;;;0.00;99.90;;;;;;5030340;28;20294;-87
2023/12/02 10:00:09;;;;;;;30.60;18.70;;;0.00;99.90;;;;;;5027706;28;20220;-83
2023/12/02 10:02:49;;;;;;;31.97;19.40;;;0.00;99.90;;;;;;5024743;28;20232;-84
2023/12/02 10:05:17;;;;;;;31.33;17.63;;;0.00;99.90;;;;;;5044826;28;20251;-83
2023/12/02 10:07:56;;;;;;;24.73;16.53;;;0.00;99.90;;;;;;5038729;28;20224;-82
2023/12/02 10:10:25;;;;;;;26.63;17.20;;;0.00;99.90;;;;;;5043698;28;20607;-82
2023/12/02 10:13:04;;;;;;;32.27;16.53;;;0.00;99.90;;;;;;5047473;28;20669;-82
2023/12/02 10:15:33;;;;;;;53.30;33.17;;;0.00;99.90;;;;;;5044738;28;20227;-82
2023/12/02 10:18:08;;;;;;;27.77;17.33;;;0.10;99.90;;;;;;5030053;28;20661;-83
2023/12/02 10:20:38;;;;;;;31.30;20.83;;;0.10;99.90;;;;;;5042865;28;20337;-83
2023/12/02 10:23:23;;;;;;;33.27;17.73;;;0.10;99.90;;;;;;5032167;28;20693;-82
2023/12/02 10:26:00;;;;;;;33.10;21.30;;;0.10;99.90;;;;;;5034941;28;20590;-82
2023/12/02 10:28:36;;;;;;;51.40;29.43;;;0.10;99.90;;;;;;5029738;28;20320;-82
2023/12/02 10:31:06;;;;;;;35.87;21.20;;;0.10;99.90;;;;;;5046279;28;20255;-80
2023/12/02 10:33:41;;;;;;;42.87;17.53;;;0.10;99.90;;;;;;5046018;28;20226;-82
2023/12/02 10:36:12;;;;;;;29.10;17.57;;;0.10;99.90;;;;;;5042578;28;20759;-80
2023/12/02 10:38:51;;;;;;;31.37;16.03;;;0.10;99.90;;;;;;5043731;28;20675;-80
2023/12/02 10:41:26;;;;;;;24.33;15.97;;;0.10;99.90;;;;;;5047448;28;20229;-79
2023/12/02 10:43:56;;;;;;;27.00;16.43;;;0.10;99.90;;;;;;5035327;28;20254;-81
2023/12/02 10:46:23;;;;;;;26.57;16.97;;;0.20;99.90;;;;;;5049100;28;20251;-82
2023/12/02 10:48:51;;;;;;;306.37;30.83;;;0.20;99.90;;;;;;5040330;28;20894;-81
2023/12/02 10:51:21;;;;;;;33.90;16.27;;;0.20;99.90;;;;;;5041127;28;20323;-83
2023/12/02 10:53:50;;;;;;;23.57;16.53;;;0.30;99.90;;;;;;5047208;28;20283;-82
2023/12/02 10:56:23;;;;;;;22.43;13.53;;;0.30;99.90;;;;;;5051915;28;20222;-83
2023/12/02 10:58:50;;;;;;;20.33;14.47;;;0.40;99.90;;;;;;5033271;28;20302;-82
2023/12/02 11:01:26;;;;;;;23.83;14.43;;;0.40;99.90;;;;;;5038949;28;20315;-82
2023/12/02 11:04:02;;;;;;;19.63;14.20;;;0.40;99.90;;;;;;5049367;28;20566;-82
2023/12/02 11:06:33;;;;;;;18.83;12.83;;;0.50;99.90;;;;;;5046782;28;20246;-82
2023/12/02 11:09:05;;;;;;;20.53;13.67;;;0.50;99.90;;;;;;5049788;28;20220;-82
2023/12/02 11:11:48;;;;;;;21.13;13.73;;;0.50;99.90;;;;;;5046809;28;20420;-83
2023/12/02 11:14:17;;;;;;;17.97;11.93;;;0.60;99.90;;;;;;5028339;28;20686;-83
2023/12/02 11:16:54;;;;;;;18.17;12.27;;;0.60;99.90;;;;;;5031455;28;20231;-83
2023/12/02 11:19:29;;;;;;;15.27;10.47;;;0.60;99.90;;;;;;5027521;28;20251;-82
2023/12/02 11:22:14;;;;;;;12.63;10.07;;;0.60;99.90;;;;;;5043240;28;20299;-82
2023/12/02 11:24:59;;;;;;;14.47;9.43;;;0.60;99.90;;;;;;5041345;28;20230;-82
2023/12/02 11:27:38;;;;;;;13.00;9.00;;;0.60;99.90;;;;;;5054644;28;20258;-81
2023/12/02 11:30:18;;;;;;;12.80;9.43;;;0.60;99.90;;;;;;5045646;28;21319;-82
2023/12/02 11:32:58;;;;;;;11.30;8.20;;;0.70;99.90;;;;;;5025664;28;20304;-82
2023/12/02 11:35:34;;;;;;;11.00;8.07;;;0.70;99.90;;;;;;5048790;28;20892;-81
2023/12/02 11:38:13;;;;;;;10.67;8.17;;;0.80;99.90;;;;;;5051626;28;20216;-81
2023/12/02 11:40:52;;;;;;;9.20;7.23;;;0.80;99.90;;;;;;5023662;28;20227;-81
2023/12/02 11:43:33;;;;;;;10.37;6.90;;;0.90;99.90;;;;;;5027099;28;20318;-82
2023/12/02 11:46:05;;;;;;;9.07;6.90;;;0.80;99.90;;;;;;5026137;28;20603;-82
2023/12/02 11:48:42;;;;;;;9.77;7.23;;;0.90;99.90;;;;;;5032463;28;20319;-82
2023/12/02 11:51:25;;;;;;;10.03;6.93;;;0.80;99.90;;;;;;5047721;28;20591;-82
2023/12/02 11:54:13;;;;;;;8.93;6.90;;;0.80;99.90;;;;;;5027429;28;20234;-82
2023/12/02 11:56:48;;;;;;;10.27;7.07;;;0.80;99.90;;;;;;5023004;28;20227;-83
2023/12/02 11:59:16;;;;;;;9.67;6.67;;;0.80;99.90;;;;;;5010609;28;20220;-83
2023/12/02 12:02:07;;;;;;;9.23;6.70;;;0.80;99.90;;;;;;5042867;28;20232;-82
2023/12/02 12:04:52;;;;;;;9.07;6.57;;;0.70;99.90;;;;;;5040067;28;20301;-82
2023/12/02 12:07:31;;;;;;;10.93;7.13;;;0.70;99.90;;;;;;5042978;28;20328;-83
2023/12/02 12:10:12;;;;;;;10.83;6.97;;;0.70;99.90;;;;;;5024077;28;21246;-82
2023/12/02 12:12:41;;;;;;;8.77;6.40;;;0.60;99.90;;;;;;5041696;28;20227;-82
2023/12/02 12:15:08;;;;;;;8.03;5.70;;;0.70;99.90;;;;;;5031625;28;20223;-82
2023/12/02 12:17:35;;;;;;;8.77;6.10;;;0.60;99.90;;;;;;5041063;28;20289;-82
2023/12/02 12:20:16;;;;;;;9.23;6.17;;;0.60;99.90;;;;;;5048668;28;20227;-81
2023/12/02 12:22:43;;;;;;;7.47;5.50;;;0.60;99.90;;;;;;5045351;28;20314;-82
2023/12/02 12:25:11;;;;;;;7.60;5.63;;;0.50;99.90;;;;;;5027048;28;20306;-82
2023/12/02 12:27:39;;;;;;;7.00;5.93;;;0.50;99.90;;;;;;5045271;28;20711;-81
2023/12/02 12:30:07;;;;;;;7.60;5.63;;;0.50;99.90;;;;;;5041031;28;20309;-82
2023/12/02 12:32:33;;;;;;;7.80;5.70;;;0.50;99.90;;;;;;5040728;28;20275;-82
2023/12/02 12:35:00;;;;;;;6.73;5.30;;;0.40;99.90;;;;;;5015029;28;20297;-82
2023/12/02 12:37:28;;;;;;;7.77;5.27;;;0.40;99.90;;;;;;5021339;28;20246;-80
2023/12/02 12:39:55;;;;;;;6.23;4.90;;;0.40;99.90;;;;;;5042832;28;20809;-80